sensor_id;sensor_type;location;lat;lon;timestamp;P1;durP1;ratioP1;P2;durP2;ratioP2
29916;SDS011;16786;49.466;11.068;2023-01-29T00:01:51;12.48;;;8.35;;
29916;SDS011;16786;49.466;11.068;2023-01-29T00:04:19;15.77;;;8.68;;
29916;SDS011;16786;49.466;11.068;2023-01-29T00:06:47;11.43;;;8.75;;
29916;SDS011;16786;49.466;11.068;2023-01-29T00:09:14;11.95;;;8.18;;
29916;SDS011;16786;49.466;11.068;2023-01-29T00:11:41;10.65;;;7.95;;
29916;SDS011;16786;49.466;11.068;2023-01-29T00:14:09;16.88;;;9.85;;
29916;SDS011;16786;49.466;11.068;2023-01-29T00:16:36;11.68;;;8.27;;
29916;SDS011;16786;49.466;11.068;2023-01-29T00:19:03;13.20;;;8.95;;
29916;SDS011;16786;49.466;11.068;2023-01-29T00:21:31;11.35;;;8.40;;
29916;SDS011;16786;49.466;11.068;2023-01-29T00:23:59;15.75;;;9.10;;
29916;SDS011;16786;49.466;11.068;2023-01-29T00:26:26;11.48;;;8.52;;
29916;SDS011;16786;49.466;11.068;2023-01-29T00:28:54;15.85;;;8.80;;
29916;SDS011;16786;49.466;11.068;2023-01-29T00:31:28;10.85;;;8.23;;
29916;SDS011;16786;49.466;11.068;2023-01-29T00:33:55;10.98;;;8.00;;
29916;SDS011;16786;49.466;11.068;2023-01-29T00:36:23;13.98;;;8.65;;
29916;SDS011;16786;49.466;11.068;2023-01-29T00:38:55;12.50;;;8.18;;
29916;SDS011;16786;49.466;11.068;2023-01-29T00:41:29;11.40;;;8.65;;
29916;SDS011;16786;49.466;11.068;2023-01-29T00:44:16;12.10;;;8.55;;
29916;SDS011;16786;49.466;11.068;2023-01-29T00:47:03;13.05;;;9.02;;
29916;SDS011;16786;49.466;11.068;2023-01-29T00:49:51;13.80;;;8.65;;
29916;SDS011;16786;49.466;11.068;2023-01-29T00:52:18;11.70;;;8.55;;
29916;SDS011;16786;49.466;11.068;2023-01-29T00:54:52;12.45;;;8.30;;
29916;SDS011;16786;49.466;11.068;2023-01-29T00:57:21;11.20;;;8.00;;
29916;SDS011;16786;49.466;11.068;2023-01-29T00:59:50;10.88;;;7.72;;
29916;SDS011;16786;49.466;11.068;2023-01-29T01:02:17;11.45;;;8.32;;
29916;SDS011;16786;49.466;11.068;2023-01-29T01:05:04;10.73;;;8.15;;
29916;SDS011;16786;49.466;11.068;2023-01-29T01:07:39;10.68;;;8.32;;
29916;SDS011;16786;49.466;11.068;2023-01-29T01:10:11;13.70;;;8.30;;
29916;SDS011;16786;49.466;11.068;2023-01-29T01:13:00;9.65;;;6.88;;
29916;SDS011;16786;49.466;11.068;2023-01-29T01:15:31;12.85;;;8.77;;
29916;SDS011;16786;49.466;11.068;2023-01-29T01:18:03;14.82;;;8.27;;
29916;SDS011;16786;49.466;11.068;2023-01-29T01:20:32;13.52;;;9.40;;
29916;SDS011;16786;49.466;11.068;2023-01-29T01:23:01;11.88;;;8.15;;
29916;SDS011;16786;49.466;11.068;2023-01-29T01:25:29;12.65;;;8.65;;
29916;SDS011;16786;49.466;11.068;2023-01-29T01:27:57;13.00;;;8.95;;
29916;SDS011;16786;49.466;11.068;2023-01-29T01:30:25;12.20;;;8.05;;
29916;SDS011;16786;49.466;11.068;2023-01-29T01:32:53;12.55;;;8.68;;
29916;SDS011;16786;49.466;11.068;2023-01-29T01:35:20;13.50;;;8.35;;
29916;SDS011;16786;49.466;11.068;2023-01-29T01:37:48;12.40;;;8.75;;
29916;SDS011;16786;49.466;11.068;2023-01-29T01:40:18;11.45;;;8.70;;
29916;SDS011;16786;49.466;11.068;2023-01-29T01:42:54;12.25;;;8.90;;
29916;SDS011;16786;49.466;11.068;2023-01-29T01:45:30;13.63;;;7.88;;
29916;SDS011;16786;49.466;11.068;2023-01-29T01:48:06;12.00;;;8.68;;
29916;SDS011;16786;49.466;11.068;2023-01-29T01:50:43;11.50;;;8.55;;
29916;SDS011;16786;49.466;11.068;2023-01-29T01:53:19;12.32;;;9.43;;
29916;SDS011;16786;49.466;11.068;2023-01-29T01:55:56;12.77;;;8.32;;
29916;SDS011;16786;49.466;11.068;2023-01-29T01:58:32;14.07;;;9.10;;
29916;SDS011;16786;49.466;11.068;2023-01-29T02:01:03;11.95;;;8.57;;
29916;SDS011;16786;49.466;11.068;2023-01-29T02:03:46;11.98;;;8.60;;
29916;SDS011;16786;49.466;11.068;2023-01-29T02:06:38;13.27;;;8.73;;
29916;SDS011;16786;49.466;11.068;2023-01-29T02:09:26;12.43;;;8.90;;
29916;SDS011;16786;49.466;11.068;2023-01-29T02:12:04;11.93;;;9.50;;
29916;SDS011;16786;49.466;11.068;2023-01-29T02:14:38;12.85;;;9.07;;
29916;SDS011;16786;49.466;11.068;2023-01-29T02:17:13;15.45;;;9.35;;
29916;SDS011;16786;49.466;11.068;2023-01-29T02:19:55;12.88;;;8.63;;
29916;SDS011;16786;49.466;11.068;2023-01-29T02:22:50;13.93;;;8.73;;
29916;SDS011;16786;49.466;11.068;2023-01-29T02:32:10;12.75;;;8.20;;
29916;SDS011;16786;49.466;11.068;2023-01-29T02:34:50;12.63;;;8.95;;
29916;SDS011;16786;49.466;11.068;2023-01-29T02:40:54;12.43;;;9.35;;
29916;SDS011;16786;49.466;11.068;2023-01-29T02:43:44;12.68;;;8.80;;
29916;SDS011;16786;49.466;11.068;2023-01-29T02:49:23;11.25;;;9.20;;
29916;SDS011;16786;49.466;11.068;2023-01-29T02:54:38;14.23;;;9.60;;
29916;SDS011;16786;49.466;11.068;2023-01-29T02:57:21;11.88;;;9.15;;
29916;SDS011;16786;49.466;11.068;2023-01-29T02:59:58;10.63;;;7.88;;
29916;SDS011;16786;49.466;11.068;2023-01-29T03:02:33;14.88;;;9.48;;
29916;SDS011;16786;49.466;11.068;2023-01-29T03:05:17;13.15;;;9.38;;
29916;SDS011;16786;49.466;11.068;2023-01-29T03:07:55;12.85;;;8.60;;
29916;SDS011;16786;49.466;11.068;2023-01-29T03:10:39;15.05;;;9.43;;
29916;SDS011;16786;49.466;11.068;2023-01-29T03:13:20;15.07;;;9.52;;
29916;SDS011;16786;49.466;11.068;2023-01-29T03:16:03;12.57;;;8.10;;
29916;SDS011;16786;49.466;11.068;2023-01-29T03:18:56;13.15;;;9.73;;
29916;SDS011;16786;49.466;11.068;2023-01-29T03:21:31;14.68;;;9.32;;
29916;SDS011;16786;49.466;11.068;2023-01-29T03:27:30;13.77;;;9.77;;
29916;SDS011;16786;49.466;11.068;2023-01-29T03:30:20;11.35;;;8.65;;
29916;SDS011;16786;49.466;11.068;2023-01-29T03:33:22;12.82;;;8.85;;
29916;SDS011;16786;49.466;11.068;2023-01-29T03:35:55;11.67;;;8.37;;
29916;SDS011;16786;49.466;11.068;2023-01-29T03:38:28;10.93;;;8.27;;
29916;SDS011;16786;49.466;11.068;2023-01-29T03:43:50;13.07;;;8.57;;
29916;SDS011;16786;49.466;11.068;2023-01-29T03:49:26;11.68;;;8.30;;
29916;SDS011;16786;49.466;11.068;2023-01-29T03:52:17;11.57;;;9.07;;
29916;SDS011;16786;49.466;11.068;2023-01-29T03:55:00;13.88;;;9.27;;
29916;SDS011;16786;49.466;11.068;2023-01-29T04:00:12;11.88;;;8.85;;
29916;SDS011;16786;49.466;11.068;2023-01-29T04:05:35;12.10;;;8.97;;
29916;SDS011;16786;49.466;11.068;2023-01-29T04:08:44;12.52;;;9.23;;
29916;SDS011;16786;49.466;11.068;2023-01-29T04:11:16;14.75;;;9.82;;
29916;SDS011;16786;49.466;11.068;2023-01-29T04:13:46;15.90;;;9.40;;
29916;SDS011;16786;49.466;11.068;2023-01-29T04:16:19;13.05;;;9.25;;
29916;SDS011;16786;49.466;11.068;2023-01-29T04:19:09;12.50;;;8.95;;
29916;SDS011;16786;49.466;11.068;2023-01-29T04:21:40;13.47;;;8.87;;
29916;SDS011;16786;49.466;11.068;2023-01-29T04:24:08;10.70;;;8.52;;
29916;SDS011;16786;49.466;11.068;2023-01-29T04:32:18;14.00;;;9.43;;
29916;SDS011;16786;49.466;11.068;2023-01-29T04:37:43;12.90;;;9.80;;
29916;SDS011;16786;49.466;11.068;2023-01-29T04:43:07;13.18;;;9.80;;
29916;SDS011;16786;49.466;11.068;2023-01-29T04:45:50;13.90;;;9.60;;
29916;SDS011;16786;49.466;11.068;2023-01-29T04:49:11;13.20;;;9.02;;
29916;SDS011;16786;49.466;11.068;2023-01-29T04:57:08;14.23;;;9.40;;
29916;SDS011;16786;49.466;11.068;2023-01-29T04:59:41;12.65;;;8.93;;
29916;SDS011;16786;49.466;11.068;2023-01-29T05:02:16;12.52;;;8.77;;
29916;SDS011;16786;49.466;11.068;2023-01-29T05:07:16;13.60;;;9.65;;
29916;SDS011;16786;49.466;11.068;2023-01-29T05:09:45;15.15;;;10.07;;
29916;SDS011;16786;49.466;11.068;2023-01-29T05:12:13;13.02;;;9.52;;
29916;SDS011;16786;49.466;11.068;2023-01-29T05:14:43;17.70;;;10.80;;
29916;SDS011;16786;49.466;11.068;2023-01-29T05:17:16;13.18;;;9.35;;
29916;SDS011;16786;49.466;11.068;2023-01-29T05:19:45;14.68;;;10.00;;
29916;SDS011;16786;49.466;11.068;2023-01-29T05:22:14;15.82;;;9.85;;
29916;SDS011;16786;49.466;11.068;2023-01-29T05:24:43;13.73;;;9.52;;
29916;SDS011;16786;49.466;11.068;2023-01-29T05:27:45;12.00;;;9.85;;
29916;SDS011;16786;49.466;11.068;2023-01-29T05:32:51;13.65;;;10.15;;
29916;SDS011;16786;49.466;11.068;2023-01-29T05:35:19;15.50;;;10.60;;
29916;SDS011;16786;49.466;11.068;2023-01-29T05:37:46;14.15;;;10.65;;
29916;SDS011;16786;49.466;11.068;2023-01-29T05:40:13;14.50;;;9.90;;
29916;SDS011;16786;49.466;11.068;2023-01-29T05:42:41;14.38;;;9.95;;
29916;SDS011;16786;49.466;11.068;2023-01-29T05:45:09;14.95;;;10.48;;
29916;SDS011;16786;49.466;11.068;2023-01-29T05:47:36;16.40;;;10.00;;
29916;SDS011;16786;49.466;11.068;2023-01-29T05:50:04;15.65;;;11.18;;
29916;SDS011;16786;49.466;11.068;2023-01-29T05:52:32;15.25;;;10.80;;
29916;SDS011;16786;49.466;11.068;2023-01-29T05:54:59;13.88;;;10.52;;
29916;SDS011;16786;49.466;11.068;2023-01-29T05:57:26;16.85;;;10.32;;
29916;SDS011;16786;49.466;11.068;2023-01-29T05:59:53;16.42;;;10.68;;
29916;SDS011;16786;49.466;11.068;2023-01-29T06:02:21;16.50;;;10.40;;
29916;SDS011;16786;49.466;11.068;2023-01-29T06:04:49;17.60;;;11.20;;
29916;SDS011;16786;49.466;11.068;2023-01-29T06:07:20;15.40;;;11.50;;
29916;SDS011;16786;49.466;11.068;2023-01-29T06:09:48;17.65;;;11.88;;
29916;SDS011;16786;49.466;11.068;2023-01-29T06:12:15;17.58;;;11.70;;
29916;SDS011;16786;49.466;11.068;2023-01-29T06:14:42;17.55;;;11.70;;
29916;SDS011;16786;49.466;11.068;2023-01-29T06:17:09;17.02;;;10.88;;
29916;SDS011;16786;49.466;11.068;2023-01-29T06:19:37;16.02;;;11.68;;
29916;SDS011;16786;49.466;11.068;2023-01-29T06:22:04;20.58;;;13.60;;
29916;SDS011;16786;49.466;11.068;2023-01-29T06:24:32;13.75;;;10.43;;
29916;SDS011;16786;49.466;11.068;2023-01-29T06:26:59;18.50;;;11.43;;
29916;SDS011;16786;49.466;11.068;2023-01-29T06:29:26;15.48;;;11.13;;
29916;SDS011;16786;49.466;11.068;2023-01-29T06:31:54;16.30;;;10.90;;
29916;SDS011;16786;49.466;11.068;2023-01-29T06:34:21;15.10;;;11.10;;
29916;SDS011;16786;49.466;11.068;2023-01-29T06:36:48;18.27;;;11.43;;
29916;SDS011;16786;49.466;11.068;2023-01-29T06:39:16;16.20;;;10.60;;
29916;SDS011;16786;49.466;11.068;2023-01-29T06:41:43;14.95;;;10.98;;
29916;SDS011;16786;49.466;11.068;2023-01-29T06:44:11;17.13;;;11.02;;
29916;SDS011;16786;49.466;11.068;2023-01-29T06:46:39;15.40;;;10.98;;
29916;SDS011;16786;49.466;11.068;2023-01-29T06:49:06;15.52;;;9.93;;
29916;SDS011;16786;49.466;11.068;2023-01-29T06:51:34;16.15;;;10.60;;
29916;SDS011;16786;49.466;11.068;2023-01-29T06:54:01;20.23;;;11.23;;
29916;SDS011;16786;49.466;11.068;2023-01-29T06:56:28;15.30;;;11.07;;
29916;SDS011;16786;49.466;11.068;2023-01-29T06:58:56;17.45;;;11.18;;
29916;SDS011;16786;49.466;11.068;2023-01-29T07:01:23;17.33;;;10.95;;
29916;SDS011;16786;49.466;11.068;2023-01-29T07:04:02;18.98;;;11.45;;
29916;SDS011;16786;49.466;11.068;2023-01-29T07:06:30;17.90;;;11.77;;
29916;SDS011;16786;49.466;11.068;2023-01-29T07:08:57;16.65;;;10.55;;
29916;SDS011;16786;49.466;11.068;2023-01-29T07:11:24;14.45;;;10.30;;
29916;SDS011;16786;49.466;11.068;2023-01-29T07:13:52;15.98;;;10.70;;
29916;SDS011;16786;49.466;11.068;2023-01-29T07:16:19;14.95;;;11.32;;
29916;SDS011;16786;49.466;11.068;2023-01-29T07:18:46;13.80;;;10.38;;
29916;SDS011;16786;49.466;11.068;2023-01-29T07:21:14;15.48;;;10.63;;
29916;SDS011;16786;49.466;11.068;2023-01-29T07:23:41;16.95;;;10.63;;
29916;SDS011;16786;49.466;11.068;2023-01-29T07:26:09;16.42;;;9.80;;
29916;SDS011;16786;49.466;11.068;2023-01-29T07:28:37;16.83;;;10.35;;
29916;SDS011;16786;49.466;11.068;2023-01-29T07:31:05;15.65;;;10.65;;
29916;SDS011;16786;49.466;11.068;2023-01-29T07:33:33;15.40;;;10.48;;
29916;SDS011;16786;49.466;11.068;2023-01-29T07:36:00;13.85;;;10.02;;
29916;SDS011;16786;49.466;11.068;2023-01-29T07:38:28;15.23;;;10.20;;
29916;SDS011;16786;49.466;11.068;2023-01-29T07:40:55;14.93;;;10.13;;
29916;SDS011;16786;49.466;11.068;2023-01-29T07:43:22;15.60;;;11.15;;
29916;SDS011;16786;49.466;11.068;2023-01-29T07:45:50;14.80;;;10.85;;
29916;SDS011;16786;49.466;11.068;2023-01-29T07:48:18;13.57;;;9.82;;
29916;SDS011;16786;49.466;11.068;2023-01-29T07:50:52;19.00;;;11.30;;
29916;SDS011;16786;49.466;11.068;2023-01-29T07:53:21;17.10;;;11.40;;
29916;SDS011;16786;49.466;11.068;2023-01-29T07:55:48;14.68;;;9.93;;
29916;SDS011;16786;49.466;11.068;2023-01-29T07:58:16;16.30;;;10.65;;
29916;SDS011;16786;49.466;11.068;2023-01-29T08:00:43;16.92;;;10.23;;
29916;SDS011;16786;49.466;11.068;2023-01-29T08:03:12;19.85;;;12.00;;
29916;SDS011;16786;49.466;11.068;2023-01-29T08:05:42;15.45;;;10.77;;
29916;SDS011;16786;49.466;11.068;2023-01-29T08:08:10;14.00;;;10.25;;
29916;SDS011;16786;49.466;11.068;2023-01-29T08:10:38;13.50;;;9.38;;
29916;SDS011;16786;49.466;11.068;2023-01-29T08:13:06;14.40;;;9.88;;
29916;SDS011;16786;49.466;11.068;2023-01-29T08:15:34;14.30;;;9.60;;
29916;SDS011;16786;49.466;11.068;2023-01-29T08:18:04;15.00;;;10.75;;
29916;SDS011;16786;49.466;11.068;2023-01-29T08:20:31;13.85;;;10.00;;
29916;SDS011;16786;49.466;11.068;2023-01-29T08:23:00;15.90;;;10.85;;
29916;SDS011;16786;49.466;11.068;2023-01-29T08:25:32;16.08;;;10.90;;
29916;SDS011;16786;49.466;11.068;2023-01-29T08:28:01;13.15;;;9.70;;
29916;SDS011;16786;49.466;11.068;2023-01-29T08:30:29;15.38;;;10.43;;
29916;SDS011;16786;49.466;11.068;2023-01-29T08:32:58;16.52;;;11.32;;
29916;SDS011;16786;49.466;11.068;2023-01-29T08:35:26;16.77;;;11.40;;
29916;SDS011;16786;49.466;11.068;2023-01-29T08:37:57;15.70;;;10.98;;
29916;SDS011;16786;49.466;11.068;2023-01-29T08:40:26;13.52;;;10.73;;
29916;SDS011;16786;49.466;11.068;2023-01-29T08:42:58;15.95;;;11.35;;
29916;SDS011;16786;49.466;11.068;2023-01-29T08:45:29;15.70;;;10.32;;
29916;SDS011;16786;49.466;11.068;2023-01-29T08:47:56;15.68;;;11.73;;
29916;SDS011;16786;49.466;11.068;2023-01-29T08:50:24;14.68;;;10.70;;
29916;SDS011;16786;49.466;11.068;2023-01-29T08:52:52;16.27;;;10.48;;
29916;SDS011;16786;49.466;11.068;2023-01-29T08:55:24;15.55;;;10.45;;
29916;SDS011;16786;49.466;11.068;2023-01-29T08:57:52;18.42;;;11.30;;
29916;SDS011;16786;49.466;11.068;2023-01-29T09:00:20;14.10;;;9.95;;
29916;SDS011;16786;49.466;11.068;2023-01-29T09:02:47;14.63;;;11.18;;
29916;SDS011;16786;49.466;11.068;2023-01-29T09:05:15;16.80;;;10.55;;
29916;SDS011;16786;49.466;11.068;2023-01-29T09:07:43;13.27;;;10.45;;
29916;SDS011;16786;49.466;11.068;2023-01-29T09:10:10;16.80;;;11.50;;
29916;SDS011;16786;49.466;11.068;2023-01-29T09:12:37;15.27;;;11.25;;
29916;SDS011;16786;49.466;11.068;2023-01-29T09:15:05;14.68;;;11.40;;
29916;SDS011;16786;49.466;11.068;2023-01-29T09:17:33;15.63;;;10.70;;
29916;SDS011;16786;49.466;11.068;2023-01-29T09:20:00;15.20;;;11.07;;
29916;SDS011;16786;49.466;11.068;2023-01-29T09:22:28;18.88;;;11.30;;
29916;SDS011;16786;49.466;11.068;2023-01-29T09:24:55;16.58;;;11.05;;
29916;SDS011;16786;49.466;11.068;2023-01-29T09:27:23;18.15;;;11.57;;
29916;SDS011;16786;49.466;11.068;2023-01-29T09:29:50;14.25;;;10.95;;
29916;SDS011;16786;49.466;11.068;2023-01-29T09:32:17;14.68;;;11.02;;
29916;SDS011;16786;49.466;11.068;2023-01-29T09:35:05;15.40;;;11.23;;
29916;SDS011;16786;49.466;11.068;2023-01-29T09:37:32;18.45;;;12.13;;
29916;SDS011;16786;49.466;11.068;2023-01-29T09:39:59;18.13;;;11.75;;
29916;SDS011;16786;49.466;11.068;2023-01-29T09:47:40;20.77;;;13.25;;
29916;SDS011;16786;49.466;11.068;2023-01-29T09:50:12;16.77;;;12.00;;
29916;SDS011;16786;49.466;11.068;2023-01-29T09:55:36;16.65;;;11.93;;
29916;SDS011;16786;49.466;11.068;2023-01-29T10:00:50;16.88;;;11.75;;
29916;SDS011;16786;49.466;11.068;2023-01-29T10:03:56;16.58;;;12.10;;
29916;SDS011;16786;49.466;11.068;2023-01-29T10:21:05;15.82;;;10.55;;
29916;SDS011;16786;49.466;11.068;2023-01-29T10:26:25;18.33;;;11.40;;
29916;SDS011;16786;49.466;11.068;2023-01-29T10:28:54;14.30;;;10.57;;
29916;SDS011;16786;49.466;11.068;2023-01-29T10:31:26;16.15;;;11.18;;
29916;SDS011;16786;49.466;11.068;2023-01-29T10:34:06;16.20;;;11.45;;
29916;SDS011;16786;49.466;11.068;2023-01-29T10:36:41;18.17;;;11.00;;
29916;SDS011;16786;49.466;11.068;2023-01-29T10:39:15;16.63;;;11.15;;
29916;SDS011;16786;49.466;11.068;2023-01-29T10:45:03;18.25;;;11.73;;
29916;SDS011;16786;49.466;11.068;2023-01-29T10:50:45;16.80;;;11.65;;
29916;SDS011;16786;49.466;11.068;2023-01-29T10:56:26;15.75;;;10.15;;
29916;SDS011;16786;49.466;11.068;2023-01-29T10:58:58;17.45;;;10.95;;
29916;SDS011;16786;49.466;11.068;2023-01-29T11:01:31;17.35;;;11.70;;
29916;SDS011;16786;49.466;11.068;2023-01-29T11:03:59;15.90;;;11.38;;
29916;SDS011;16786;49.466;11.068;2023-01-29T11:06:30;17.20;;;11.70;;
29916;SDS011;16786;49.466;11.068;2023-01-29T11:09:13;17.80;;;11.65;;
29916;SDS011;16786;49.466;11.068;2023-01-29T11:12:02;17.52;;;12.00;;
29916;SDS011;16786;49.466;11.068;2023-01-29T11:14:50;17.60;;;11.65;;
29916;SDS011;16786;49.466;11.068;2023-01-29T11:17:30;17.90;;;11.88;;
29916;SDS011;16786;49.466;11.068;2023-01-29T11:19:58;15.90;;;11.60;;
29916;SDS011;16786;49.466;11.068;2023-01-29T11:22:26;16.52;;;10.45;;
29916;SDS011;16786;49.466;11.068;2023-01-29T11:25:16;16.95;;;11.02;;
29916;SDS011;16786;49.466;11.068;2023-01-29T11:27:48;16.23;;;11.18;;
29916;SDS011;16786;49.466;11.068;2023-01-29T11:30:25;17.35;;;11.30;;
29916;SDS011;16786;49.466;11.068;2023-01-29T11:32:59;14.85;;;10.88;;
29916;SDS011;16786;49.466;11.068;2023-01-29T11:38:24;17.88;;;11.20;;
29916;SDS011;16786;49.466;11.068;2023-01-29T11:41:05;15.68;;;11.32;;
29916;SDS011;16786;49.466;11.068;2023-01-29T11:43:40;16.13;;;10.88;;
29916;SDS011;16786;49.466;11.068;2023-01-29T11:46:11;17.08;;;11.43;;
29916;SDS011;16786;49.466;11.068;2023-01-29T11:48:47;18.40;;;11.98;;
29916;SDS011;16786;49.466;11.068;2023-01-29T11:51:37;15.85;;;10.93;;
29916;SDS011;16786;49.466;11.068;2023-01-29T11:54:09;17.02;;;11.18;;
29916;SDS011;16786;49.466;11.068;2023-01-29T11:56:44;15.00;;;11.23;;
29916;SDS011;16786;49.466;11.068;2023-01-29T11:59:59;16.00;;;11.63;;
29916;SDS011;16786;49.466;11.068;2023-01-29T12:04:48;17.45;;;11.77;;
29916;SDS011;16786;49.466;11.068;2023-01-29T12:07:16;16.08;;;11.23;;
29916;SDS011;16786;49.466;11.068;2023-01-29T12:09:52;17.92;;;12.20;;
29916;SDS011;16786;49.466;11.068;2023-01-29T12:17:51;14.90;;;11.43;;
29916;SDS011;16786;49.466;11.068;2023-01-29T12:20:27;16.85;;;11.95;;
29916;SDS011;16786;49.466;11.068;2023-01-29T12:26:00;15.80;;;11.50;;
29916;SDS011;16786;49.466;11.068;2023-01-29T12:29:34;17.35;;;12.05;;
29916;SDS011;16786;49.466;11.068;2023-01-29T12:34:35;16.25;;;11.07;;
29916;SDS011;16786;49.466;11.068;2023-01-29T12:37:30;14.70;;;10.85;;
29916;SDS011;16786;49.466;11.068;2023-01-29T12:40:15;16.88;;;11.70;;
29916;SDS011;16786;49.466;11.068;2023-01-29T12:42:45;15.77;;;11.05;;
29916;SDS011;16786;49.466;11.068;2023-01-29T12:45:20;15.13;;;11.05;;
29916;SDS011;16786;49.466;11.068;2023-01-29T12:47:54;16.50;;;11.32;;
29916;SDS011;16786;49.466;11.068;2023-01-29T12:50:42;15.73;;;9.90;;
29916;SDS011;16786;49.466;11.068;2023-01-29T12:55:56;15.20;;;10.43;;
29916;SDS011;16786;49.466;11.068;2023-01-29T12:58:30;14.45;;;10.23;;
29916;SDS011;16786;49.466;11.068;2023-01-29T13:01:05;14.90;;;10.80;;
29916;SDS011;16786;49.466;11.068;2023-01-29T13:06:46;14.20;;;10.60;;
29916;SDS011;16786;49.466;11.068;2023-01-29T13:09:20;13.77;;;9.82;;
29916;SDS011;16786;49.466;11.068;2023-01-29T13:12:01;14.82;;;10.45;;
29916;SDS011;16786;49.466;11.068;2023-01-29T13:19:54;15.57;;;10.75;;
29916;SDS011;16786;49.466;11.068;2023-01-29T13:22:26;12.00;;;8.95;;
29916;SDS011;16786;49.466;11.068;2023-01-29T13:24:57;16.45;;;11.32;;
29916;SDS011;16786;49.466;11.068;2023-01-29T13:27:32;15.70;;;11.40;;
29916;SDS011;16786;49.466;11.068;2023-01-29T13:30:00;16.55;;;11.25;;
29916;SDS011;16786;49.466;11.068;2023-01-29T13:32:30;15.73;;;10.73;;
29916;SDS011;16786;49.466;11.068;2023-01-29T13:35:01;14.68;;;10.45;;
29916;SDS011;16786;49.466;11.068;2023-01-29T13:37:45;13.45;;;10.00;;
29916;SDS011;16786;49.466;11.068;2023-01-29T13:40:23;14.32;;;9.75;;
29916;SDS011;16786;49.466;11.068;2023-01-29T13:42:52;13.93;;;10.10;;
29916;SDS011;16786;49.466;11.068;2023-01-29T13:45:24;11.60;;;8.77;;
29916;SDS011;16786;49.466;11.068;2023-01-29T13:48:07;13.60;;;9.90;;
29916;SDS011;16786;49.466;11.068;2023-01-29T13:50:50;13.27;;;10.00;;
29916;SDS011;16786;49.466;11.068;2023-01-29T13:53:25;14.65;;;10.35;;
29916;SDS011;16786;49.466;11.068;2023-01-29T13:55:54;14.85;;;9.95;;
29916;SDS011;16786;49.466;11.068;2023-01-29T13:58:56;13.98;;;9.27;;
29916;SDS011;16786;49.466;11.068;2023-01-29T14:06:55;13.02;;;8.75;;
29916;SDS011;16786;49.466;11.068;2023-01-29T14:12:04;11.07;;;8.05;;
29916;SDS011;16786;49.466;11.068;2023-01-29T14:14:59;10.52;;;8.38;;
29916;SDS011;16786;49.466;11.068;2023-01-29T14:17:29;11.88;;;8.52;;
29916;SDS011;16786;49.466;11.068;2023-01-29T14:20:00;11.40;;;8.32;;
29916;SDS011;16786;49.466;11.068;2023-01-29T14:22:41;13.88;;;8.65;;
29916;SDS011;16786;49.466;11.068;2023-01-29T14:25:14;11.48;;;8.43;;
29916;SDS011;16786;49.466;11.068;2023-01-29T14:27:45;11.07;;;8.50;;
29916;SDS011;16786;49.466;11.068;2023-01-29T14:30:15;12.57;;;8.30;;
29916;SDS011;16786;49.466;11.068;2023-01-29T14:32:47;10.95;;;8.82;;
29916;SDS011;16786;49.466;11.068;2023-01-29T14:37:53;12.00;;;9.02;;
29916;SDS011;16786;49.466;11.068;2023-01-29T14:40:26;12.15;;;8.43;;
29916;SDS011;16786;49.466;11.068;2023-01-29T14:45:37;10.55;;;8.85;;
29916;SDS011;16786;49.466;11.068;2023-01-29T14:50:39;12.30;;;9.32;;
29916;SDS011;16786;49.466;11.068;2023-01-29T14:56:33;11.93;;;8.68;;
29916;SDS011;16786;49.466;11.068;2023-01-29T15:01:52;14.25;;;9.35;;
29916;SDS011;16786;49.466;11.068;2023-01-29T15:04:34;13.32;;;9.25;;
29916;SDS011;16786;49.466;11.068;2023-01-29T15:09:51;14.80;;;9.88;;
29916;SDS011;16786;49.466;11.068;2023-01-29T15:12:47;12.52;;;8.85;;
29916;SDS011;16786;49.466;11.068;2023-01-29T15:15:31;14.60;;;9.02;;
29916;SDS011;16786;49.466;11.068;2023-01-29T15:21:13;11.18;;;8.40;;
29916;SDS011;16786;49.466;11.068;2023-01-29T15:23:42;13.32;;;8.82;;
29916;SDS011;16786;49.466;11.068;2023-01-29T15:26:12;12.07;;;9.05;;
29916;SDS011;16786;49.466;11.068;2023-01-29T15:28:44;14.32;;;9.88;;
29916;SDS011;16786;49.466;11.068;2023-01-29T15:31:30;12.23;;;8.85;;
29916;SDS011;16786;49.466;11.068;2023-01-29T15:33:58;13.70;;;9.52;;
29916;SDS011;16786;49.466;11.068;2023-01-29T15:36:31;13.55;;;9.60;;
29916;SDS011;16786;49.466;11.068;2023-01-29T15:39:32;13.52;;;9.55;;
29916;SDS011;16786;49.466;11.068;2023-01-29T15:42:04;12.88;;;9.30;;
29916;SDS011;16786;49.466;11.068;2023-01-29T15:44:43;14.48;;;9.65;;
29916;SDS011;16786;49.466;11.068;2023-01-29T15:47:11;14.10;;;9.88;;
29916;SDS011;16786;49.466;11.068;2023-01-29T15:49:40;13.82;;;9.35;;
29916;SDS011;16786;49.466;11.068;2023-01-29T15:52:16;14.20;;;9.20;;
29916;SDS011;16786;49.466;11.068;2023-01-29T15:54:52;14.85;;;9.40;;
29916;SDS011;16786;49.466;11.068;2023-01-29T15:57:28;18.58;;;11.20;;
29916;SDS011;16786;49.466;11.068;2023-01-29T16:00:07;15.40;;;10.88;;
29916;SDS011;16786;49.466;11.068;2023-01-29T16:02:48;17.50;;;11.57;;
29916;SDS011;16786;49.466;11.068;2023-01-29T16:05:27;17.92;;;10.15;;
29916;SDS011;16786;49.466;11.068;2023-01-29T16:08:00;14.65;;;10.48;;
29916;SDS011;16786;49.466;11.068;2023-01-29T16:10:31;16.85;;;10.88;;
29916;SDS011;16786;49.466;11.068;2023-01-29T16:13:03;16.23;;;10.95;;
29916;SDS011;16786;49.466;11.068;2023-01-29T16:15:35;18.27;;;11.50;;
29916;SDS011;16786;49.466;11.068;2023-01-29T16:18:19;18.52;;;11.35;;
29916;SDS011;16786;49.466;11.068;2023-01-29T16:20:53;17.80;;;11.05;;
29916;SDS011;16786;49.466;11.068;2023-01-29T16:23:28;16.08;;;10.65;;
29916;SDS011;16786;49.466;11.068;2023-01-29T16:26:06;17.63;;;10.63;;
29916;SDS011;16786;49.466;11.068;2023-01-29T16:28:41;17.58;;;11.13;;
29916;SDS011;16786;49.466;11.068;2023-01-29T16:31:19;17.65;;;11.80;;
29916;SDS011;16786;49.466;11.068;2023-01-29T16:34:09;18.92;;;12.27;;
29916;SDS011;16786;49.466;11.068;2023-01-29T16:36:49;21.58;;;12.10;;
29916;SDS011;16786;49.466;11.068;2023-01-29T16:39:31;16.77;;;11.73;;
29916;SDS011;16786;49.466;11.068;2023-01-29T16:47:19;21.10;;;12.30;;
29916;SDS011;16786;49.466;11.068;2023-01-29T16:49:50;23.88;;;12.07;;
29916;SDS011;16786;49.466;11.068;2023-01-29T16:52:39;19.70;;;12.23;;
29916;SDS011;16786;49.466;11.068;2023-01-29T16:55:23;20.27;;;12.32;;
29916;SDS011;16786;49.466;11.068;2023-01-29T16:57:52;23.40;;;13.25;;
29916;SDS011;16786;49.466;11.068;2023-01-29T17:00:24;28.55;;;13.52;;
29916;SDS011;16786;49.466;11.068;2023-01-29T17:02:55;24.05;;;14.32;;
29916;SDS011;16786;49.466;11.068;2023-01-29T17:05:30;21.73;;;13.32;;
29916;SDS011;16786;49.466;11.068;2023-01-29T17:07:59;21.83;;;13.27;;
29916;SDS011;16786;49.466;11.068;2023-01-29T17:10:27;24.92;;;13.73;;
29916;SDS011;16786;49.466;11.068;2023-01-29T17:12:57;23.20;;;13.85;;
29916;SDS011;16786;49.466;11.068;2023-01-29T17:15:36;23.08;;;13.68;;
29916;SDS011;16786;49.466;11.068;2023-01-29T17:18:19;23.05;;;13.00;;
29916;SDS011;16786;49.466;11.068;2023-01-29T17:20:49;28.05;;;13.75;;
29916;SDS011;16786;49.466;11.068;2023-01-29T17:23:18;23.30;;;12.95;;